sensor_id;sensor_type;location;lat;lon;timestamp;temperature;humidity
5059;DHT22;2548;52.050;11.036;2022-08-25T00:01:48;17.80;99.90
5059;DHT22;2548;52.050;11.036;2022-08-25T00:04:18;17.80;99.90
5059;DHT22;2548;52.050;11.036;2022-08-25T00:06:46;17.80;99.90
5059;DHT22;2548;52.050;11.036;2022-08-25T00:09:16;17.80;99.90
5059;DHT22;2548;52.050;11.036;2022-08-25T00:11:44;17.70;99.90
5059;DHT22;2548;52.050;11.036;2022-08-25T00:14:17;17.70;99.90
5059;DHT22;2548;52.050;11.036;2022-08-25T00:16:45;17.60;99.90
5059;DHT22;2548;52.050;11.036;2022-08-25T00:19:15;17.60;99.90
5059;DHT22;2548;52.050;11.036;2022-08-25T00:21:45;17.60;99.90
5059;DHT22;2548;52.050;11.036;2022-08-25T00:24:14;17.60;99.90
5059;DHT22;2548;52.050;11.036;2022-08-25T00:26:45;17.50;99.90
5059;DHT22;2548;52.050;11.036;2022-08-25T00:29:14;17.60;99.90
5059;DHT22;2548;52.050;11.036;2022-08-25T00:31:42;17.50;99.90
5059;DHT22;2548;52.050;11.036;2022-08-25T00:34:12;17.40;99.90
5059;DHT22;2548;52.050;11.036;2022-08-25T00:36:40;17.40;99.90
5059;DHT22;2548;52.050;11.036;2022-08-25T00:39:10;17.40;99.90
5059;DHT22;2548;52.050;11.036;2022-08-25T00:41:38;17.30;99.90
5059;DHT22;2548;52.050;11.036;2022-08-25T00:44:09;17.40;99.90
5059;DHT22;2548;52.050;11.036;2022-08-25T00:46:41;17.30;99.90
5059;DHT22;2548;52.050;11.036;2022-08-25T00:49:12;17.30;99.90
5059;DHT22;2548;52.050;11.036;2022-08-25T00:51:43;17.20;99.90
5059;DHT22;2548;52.050;11.036;2022-08-25T00:54:17;17.20;99.90
5059;DHT22;2548;52.050;11.036;2022-08-25T00:56:45;17.20;99.90
5059;DHT22;2548;52.050;11.036;2022-08-25T00:59:14;17.20;99.90
5059;DHT22;2548;52.050;11.036;2022-08-25T01:01:42;17.20;99.90
5059;DHT22;2548;52.050;11.036;2022-08-25T01:04:09;17.10;99.90
5059;DHT22;2548;52.050;11.036;2022-08-25T01:06:40;17.10;99.90
5059;DHT22;2548;52.050;11.036;2022-08-25T01:09:10;17.10;99.90
5059;DHT22;2548;52.050;11.036;2022-08-25T01:11:38;17.10;99.90
5059;DHT22;2548;52.050;11.036;2022-08-25T01:14:07;17.00;99.90
5059;DHT22;2548;52.050;11.036;2022-08-25T01:16:37;17.00;99.90
5059;DHT22;2548;52.050;11.036;2022-08-25T01:19:06;17.00;99.90
5059;DHT22;2548;52.050;11.036;2022-08-25T01:21:41;17.00;99.90
5059;DHT22;2548;52.050;11.036;2022-08-25T01:24:13;17.00;99.90
5059;DHT22;2548;52.050;11.036;2022-08-25T01:26:42;17.00;99.90
5059;DHT22;2548;52.050;11.036;2022-08-25T01:29:09;16.90;99.90
5059;DHT22;2548;52.050;11.036;2022-08-25T01:31:53;16.90;99.90
5059;DHT22;2548;52.050;11.036;2022-08-25T01:34:23;16.80;99.90
5059;DHT22;2548;52.050;11.036;2022-08-25T01:36:54;16.90;99.90
5059;DHT22;2548;52.050;11.036;2022-08-25T01:39:22;16.90;99.90
5059;DHT22;2548;52.050;11.036;2022-08-25T01:42:02;16.80;99.90
5059;DHT22;2548;52.050;11.036;2022-08-25T01:44:31;16.80;99.90
5059;DHT22;2548;52.050;11.036;2022-08-25T01:47:00;16.70;99.90
5059;DHT22;2548;52.050;11.036;2022-08-25T01:49:27;16.60;99.90
5059;DHT22;2548;52.050;11.036;2022-08-25T01:52:00;16.60;99.90
5059;DHT22;2548;52.050;11.036;2022-08-25T01:54:28;16.60;99.90
5059;DHT22;2548;52.050;11.036;2022-08-25T01:56:57;16.50;99.90
5059;DHT22;2548;52.050;11.036;2022-08-25T01:59:25;16.50;99.90
5059;DHT22;2548;52.050;11.036;2022-08-25T02:01:53;16.50;99.90
5059;DHT22;2548;52.050;11.036;2022-08-25T02:04:20;16.40;99.90
5059;DHT22;2548;52.050;11.036;2022-08-25T02:06:48;16.50;99.90
5059;DHT22;2548;52.050;11.036;2022-08-25T02:09:17;16.40;99.90
5059;DHT22;2548;52.050;11.036;2022-08-25T02:11:46;16.40;99.90
5059;DHT22;2548;52.050;11.036;2022-08-25T02:14:14;16.50;99.90
5059;DHT22;2548;52.050;11.036;2022-08-25T02:16:46;16.60;99.90
5059;DHT22;2548;52.050;11.036;2022-08-25T02:19:14;16.60;99.90
5059;DHT22;2548;52.050;11.036;2022-08-25T02:21:42;16.60;99.90
5059;DHT22;2548;52.050;11.036;2022-08-25T02:24:11;16.50;99.90
5059;DHT22;2548;52.050;11.036;2022-08-25T02:26:39;16.30;99.90
5059;DHT22;2548;52.050;11.036;2022-08-25T02:29:08;16.10;99.90
5059;DHT22;2548;52.050;11.036;2022-08-25T02:31:35;15.90;99.90
5059;DHT22;2548;52.050;11.036;2022-08-25T02:34:03;15.80;99.90
5059;DHT22;2548;52.050;11.036;2022-08-25T02:36:31;15.70;99.90
5059;DHT22;2548;52.050;11.036;2022-08-25T02:38:59;15.80;99.90
5059;DHT22;2548;52.050;11.036;2022-08-25T02:41:27;15.70;99.90
5059;DHT22;2548;52.050;11.036;2022-08-25T02:43:56;15.70;99.90
5059;DHT22;2548;52.050;11.036;2022-08-25T02:46:24;15.70;99.90
5059;DHT22;2548;52.050;11.036;2022-08-25T02:48:51;15.80;99.90
5059;DHT22;2548;52.050;11.036;2022-08-25T02:51:20;15.80;99.90
5059;DHT22;2548;52.050;11.036;2022-08-25T02:53:48;15.80;99.90
5059;DHT22;2548;52.050;11.036;2022-08-25T02:56:17;15.80;99.90
5059;DHT22;2548;52.050;11.036;2022-08-25T02:58:46;15.70;99.90
5059;DHT22;2548;52.050;11.036;2022-08-25T03:01:15;15.70;99.90
5059;DHT22;2548;52.050;11.036;2022-08-25T03:03:45;15.70;99.90
5059;DHT22;2548;52.050;11.036;2022-08-25T03:06:15;15.70;99.90
5059;DHT22;2548;52.050;11.036;2022-08-25T03:08:43;15.80;99.90
5059;DHT22;2548;52.050;11.036;2022-08-25T03:11:11;15.80;99.90
5059;DHT22;2548;52.050;11.036;2022-08-25T03:13:39;15.80;99.90
5059;DHT22;2548;52.050;11.036;2022-08-25T03:16:07;15.80;99.90
5059;DHT22;2548;52.050;11.036;2022-08-25T03:18:37;15.80;99.90
5059;DHT22;2548;52.050;11.036;2022-08-25T03:21:05;15.90;99.90
5059;DHT22;2548;52.050;11.036;2022-08-25T03:23:32;15.90;99.90
5059;DHT22;2548;52.050;11.036;2022-08-25T03:26:00;15.90;99.90
5059;DHT22;2548;52.050;11.036;2022-08-25T03:28:45;15.90;99.90
5059;DHT22;2548;52.050;11.036;2022-08-25T03:31:12;15.90;99.90
5059;DHT22;2548;52.050;11.036;2022-08-25T03:33:41;15.90;99.90
5059;DHT22;2548;52.050;11.036;2022-08-25T03:36:09;16.00;99.90
5059;DHT22;2548;52.050;11.036;2022-08-25T03:38:37;15.90;99.90
5059;DHT22;2548;52.050;11.036;2022-08-25T03:41:12;16.00;99.90
5059;DHT22;2548;52.050;11.036;2022-08-25T03:43:41;16.00;99.90
5059;DHT22;2548;52.050;11.036;2022-08-25T03:46:09;16.00;99.90
5059;DHT22;2548;52.050;11.036;2022-08-25T03:48:43;16.00;99.90
5059;DHT22;2548;52.050;11.036;2022-08-25T03:51:11;16.00;99.90
5059;DHT22;2548;52.050;11.036;2022-08-25T03:53:39;16.00;99.90
5059;DHT22;2548;52.050;11.036;2022-08-25T03:56:06;16.00;99.90
5059;DHT22;2548;52.050;11.036;2022-08-25T03:58:34;16.00;99.90
5059;DHT22;2548;52.050;11.036;2022-08-25T04:01:02;16.00;99.90
5059;DHT22;2548;52.050;11.036;2022-08-25T04:03:29;16.00;99.90
5059;DHT22;2548;52.050;11.036;2022-08-25T04:06:01;15.90;99.90
5059;DHT22;2548;52.050;11.036;2022-08-25T04:08:29;15.80;99.90
5059;DHT22;2548;52.050;11.036;2022-08-25T04:10:56;15.90;99.90
5059;DHT22;2548;52.050;11.036;2022-08-25T04:13:24;15.80;99.90
5059;DHT22;2548;52.050;11.036;2022-08-25T04:15:51;15.80;99.90
5059;DHT22;2548;52.050;11.036;2022-08-25T04:18:19;15.70;99.90
5059;DHT22;2548;52.050;11.036;2022-08-25T04:20:46;15.60;99.90
5059;DHT22;2548;52.050;11.036;2022-08-25T04:23:15;15.60;99.90
5059;DHT22;2548;52.050;11.036;2022-08-25T04:25:43;15.60;99.90
5059;DHT22;2548;52.050;11.036;2022-08-25T04:28:10;15.60;99.90
5059;DHT22;2548;52.050;11.036;2022-08-25T04:30:41;15.60;99.90
5059;DHT22;2548;52.050;11.036;2022-08-25T04:33:08;15.60;99.90
5059;DHT22;2548;52.050;11.036;2022-08-25T04:35:36;15.70;99.90
5059;DHT22;2548;52.050;11.036;2022-08-25T04:38:03;15.80;99.90
5059;DHT22;2548;52.050;11.036;2022-08-25T04:40:33;15.90;99.90
5059;DHT22;2548;52.050;11.036;2022-08-25T04:43:00;15.90;99.90
5059;DHT22;2548;52.050;11.036;2022-08-25T04:45:27;15.80;99.90
5059;DHT22;2548;52.050;11.036;2022-08-25T04:47:55;15.90;99.90
5059;DHT22;2548;52.050;11.036;2022-08-25T04:50:25;15.90;99.90
5059;DHT22;2548;52.050;11.036;2022-08-25T04:52:53;15.90;99.90
5059;DHT22;2548;52.050;11.036;2022-08-25T04:55:21;16.00;99.90
5059;DHT22;2548;52.050;11.036;2022-08-25T04:57:50;16.00;99.90
5059;DHT22;2548;52.050;11.036;2022-08-25T05:00:18;16.00;99.90
5059;DHT22;2548;52.050;11.036;2022-08-25T05:02:45;15.90;99.90
5059;DHT22;2548;52.050;11.036;2022-08-25T05:05:13;15.90;99.90
5059;DHT22;2548;52.050;11.036;2022-08-25T05:07:41;15.80;99.90
5059;DHT22;2548;52.050;11.036;2022-08-25T05:10:09;15.90;99.90
5059;DHT22;2548;52.050;11.036;2022-08-25T05:12:36;15.90;99.90
5059;DHT22;2548;52.050;11.036;2022-08-25T05:15:06;15.90;99.90
5059;DHT22;2548;52.050;11.036;2022-08-25T05:17:47;16.00;99.90
5059;DHT22;2548;52.050;11.036;2022-08-25T05:20:15;16.10;99.90
5059;DHT22;2548;52.050;11.036;2022-08-25T05:22:43;16.10;99.90
5059;DHT22;2548;52.050;11.036;2022-08-25T05:25:12;16.20;99.90
5059;DHT22;2548;52.050;11.036;2022-08-25T05:27:41;16.30;99.90
5059;DHT22;2548;52.050;11.036;2022-08-25T05:30:11;16.30;99.90
5059;DHT22;2548;52.050;11.036;2022-08-25T05:32:38;16.40;99.90
5059;DHT22;2548;52.050;11.036;2022-08-25T05:35:07;16.50;99.90
5059;DHT22;2548;52.050;11.036;2022-08-25T05:37:34;16.60;99.90
5059;DHT22;2548;52.050;11.036;2022-08-25T05:40:03;16.80;99.90
5059;DHT22;2548;52.050;11.036;2022-08-25T05:42:32;16.90;99.90
5059;DHT22;2548;52.050;11.036;2022-08-25T05:44:59;17.00;99.90
5059;DHT22;2548;52.050;11.036;2022-08-25T05:47:28;17.10;99.90
5059;DHT22;2548;52.050;11.036;2022-08-25T05:49:55;17.20;99.90
5059;DHT22;2548;52.050;11.036;2022-08-25T05:52:23;17.40;99.90
5059;DHT22;2548;52.050;11.036;2022-08-25T05:54:52;17.60;99.90
5059;DHT22;2548;52.050;11.036;2022-08-25T05:57:20;17.70;99.90
5059;DHT22;2548;52.050;11.036;2022-08-25T05:59:47;17.80;99.90
5059;DHT22;2548;52.050;11.036;2022-08-25T06:02:15;17.80;99.90
5059;DHT22;2548;52.050;11.036;2022-08-25T06:05:01;17.90;99.90
5059;DHT22;2548;52.050;11.036;2022-08-25T06:07:29;18.00;99.90
5059;DHT22;2548;52.050;11.036;2022-08-25T06:09:56;18.00;99.90
5059;DHT22;2548;52.050;11.036;2022-08-25T06:12:23;18.10;99.90
5059;DHT22;2548;52.050;11.036;2022-08-25T06:14:51;18.20;99.90
5059;DHT22;2548;52.050;11.036;2022-08-25T06:17:18;18.30;99.90
5059;DHT22;2548;52.050;11.036;2022-08-25T06:19:46;18.30;99.90
5059;DHT22;2548;52.050;11.036;2022-08-25T06:22:14;18.40;99.90
5059;DHT22;2548;52.050;11.036;2022-08-25T06:24:42;18.50;99.90
5059;DHT22;2548;52.050;11.036;2022-08-25T06:27:10;18.60;99.90
5059;DHT22;2548;52.050;11.036;2022-08-25T06:29:37;18.70;99.90
5059;DHT22;2548;52.050;11.036;2022-08-25T06:32:05;18.80;99.90
5059;DHT22;2548;52.050;11.036;2022-08-25T06:34:33;19.00;99.90
5059;DHT22;2548;52.050;11.036;2022-08-25T06:37:00;19.10;99.90
5059;DHT22;2548;52.050;11.036;2022-08-25T06:39:29;19.20;99.90
5059;DHT22;2548;52.050;11.036;2022-08-25T06:41:57;19.40;99.90
5059;DHT22;2548;52.050;11.036;2022-08-25T06:44:25;19.50;99.90
5059;DHT22;2548;52.050;11.036;2022-08-25T06:46:53;19.60;99.90
5059;DHT22;2548;52.050;11.036;2022-08-25T06:49:20;19.80;99.90
5059;DHT22;2548;52.050;11.036;2022-08-25T06:51:48;19.90;99.90
5059;DHT22;2548;52.050;11.036;2022-08-25T06:54:15;20.10;99.90
5059;DHT22;2548;52.050;11.036;2022-08-25T06:56:44;20.30;99.90
5059;DHT22;2548;52.050;11.036;2022-08-25T06:59:12;20.40;99.90
5059;DHT22;2548;52.050;11.036;2022-08-25T07:01:40;20.50;99.90
5059;DHT22;2548;52.050;11.036;2022-08-25T07:04:07;20.60;99.90
5059;DHT22;2548;52.050;11.036;2022-08-25T07:06:35;20.70;99.90
5059;DHT22;2548;52.050;11.036;2022-08-25T07:09:04;20.90;99.90
5059;DHT22;2548;52.050;11.036;2022-08-25T07:11:33;21.00;99.90
5059;DHT22;2548;52.050;11.036;2022-08-25T07:14:03;21.20;99.90
5059;DHT22;2548;52.050;11.036;2022-08-25T07:16:31;21.30;99.90
5059;DHT22;2548;52.050;11.036;2022-08-25T07:18:59;21.40;99.90
5059;DHT22;2548;52.050;11.036;2022-08-25T07:21:29;21.50;99.90
5059;DHT22;2548;52.050;11.036;2022-08-25T07:23:57;21.60;99.90
5059;DHT22;2548;52.050;11.036;2022-08-25T07:26:27;21.60;99.90
5059;DHT22;2548;52.050;11.036;2022-08-25T07:28:55;21.80;99.90
5059;DHT22;2548;52.050;11.036;2022-08-25T07:31:24;21.90;99.90
5059;DHT22;2548;52.050;11.036;2022-08-25T07:33:52;22.00;99.90
5059;DHT22;2548;52.050;11.036;2022-08-25T07:36:37;22.10;99.90
5059;DHT22;2548;52.050;11.036;2022-08-25T07:39:04;22.20;99.90
5059;DHT22;2548;52.050;11.036;2022-08-25T07:41:36;22.40;99.90
5059;DHT22;2548;52.050;11.036;2022-08-25T07:44:04;22.50;99.90
5059;DHT22;2548;52.050;11.036;2022-08-25T07:46:33;22.60;99.90
5059;DHT22;2548;52.050;11.036;2022-08-25T07:49:00;22.70;99.90
5059;DHT22;2548;52.050;11.036;2022-08-25T07:51:28;22.80;99.90
5059;DHT22;2548;52.050;11.036;2022-08-25T07:53:55;22.90;99.90
5059;DHT22;2548;52.050;11.036;2022-08-25T07:56:23;23.00;99.90
5059;DHT22;2548;52.050;11.036;2022-08-25T07:58:50;23.10;99.90
5059;DHT22;2548;52.050;11.036;2022-08-25T08:01:20;23.20;99.90
5059;DHT22;2548;52.050;11.036;2022-08-25T08:03:49;23.30;99.90
5059;DHT22;2548;52.050;11.036;2022-08-25T08:06:19;23.40;99.90
5059;DHT22;2548;52.050;11.036;2022-08-25T08:08:48;23.50;99.90
5059;DHT22;2548;52.050;11.036;2022-08-25T08:11:20;23.50;99.90
5059;DHT22;2548;52.050;11.036;2022-08-25T08:13:48;23.60;99.90
5059;DHT22;2548;52.050;11.036;2022-08-25T08:16:18;23.70;99.90
5059;DHT22;2548;52.050;11.036;2022-08-25T08:18:47;23.80;99.90
5059;DHT22;2548;52.050;11.036;2022-08-25T08:21:18;23.90;99.90
5059;DHT22;2548;52.050;11.036;2022-08-25T08:23:46;24.10;99.90
5059;DHT22;2548;52.050;11.036;2022-08-25T08:26:14;24.20;99.90
5059;DHT22;2548;52.050;11.036;2022-08-25T08:28:42;24.30;99.90
5059;DHT22;2548;52.050;11.036;2022-08-25T08:31:10;24.40;99.90
5059;DHT22;2548;52.050;11.036;2022-08-25T08:33:38;24.40;99.90
5059;DHT22;2548;52.050;11.036;2022-08-25T08:36:07;24.50;99.90
5059;DHT22;2548;52.050;11.036;2022-08-25T08:38:38;24.60;99.90
5059;DHT22;2548;52.050;11.036;2022-08-25T08:41:16;24.80;99.90
5059;DHT22;2548;52.050;11.036;2022-08-25T08:44:08;25.00;99.90
5059;DHT22;2548;52.050;11.036;2022-08-25T08:46:45;25.20;99.90
5059;DHT22;2548;52.050;11.036;2022-08-25T08:49:23;25.20;99.90
5059;DHT22;2548;52.050;11.036;2022-08-25T08:52:00;25.50;99.90
5059;DHT22;2548;52.050;11.036;2022-08-25T08:54:32;25.60;99.90
5059;DHT22;2548;52.050;11.036;2022-08-25T08:57:06;25.70;99.90
5059;DHT22;2548;52.050;11.036;2022-08-25T08:59:41;25.70;99.90
5059;DHT22;2548;52.050;11.036;2022-08-25T09:02:14;25.80;99.90
5059;DHT22;2548;52.050;11.036;2022-08-25T09:04:46;25.90;99.90
5059;DHT22;2548;52.050;11.036;2022-08-25T09:07:18;26.00;99.90
5059;DHT22;2548;52.050;11.036;2022-08-25T09:09:48;26.30;99.90
5059;DHT22;2548;52.050;11.036;2022-08-25T09:12:23;26.20;99.90
5059;DHT22;2548;52.050;11.036;2022-08-25T09:15:03;26.20;99.90
5059;DHT22;2548;52.050;11.036;2022-08-25T09:17:41;26.30;99.90
5059;DHT22;2548;52.050;11.036;2022-08-25T09:20:28;26.60;99.90
5059;DHT22;2548;52.050;11.036;2022-08-25T09:23:02;26.80;99.90
5059;DHT22;2548;52.050;11.036;2022-08-25T09:25:43;27.10;99.90
5059;DHT22;2548;52.050;11.036;2022-08-25T09:28:17;27.10;99.90
5059;DHT22;2548;52.050;11.036;2022-08-25T09:30:50;27.00;99.90
5059;DHT22;2548;52.050;11.036;2022-08-25T09:33:22;26.80;99.90
5059;DHT22;2548;52.050;11.036;2022-08-25T09:35:52;26.60;99.90
5059;DHT22;2548;52.050;11.036;2022-08-25T09:38:20;26.60;99.90
5059;DHT22;2548;52.050;11.036;2022-08-25T09:40:51;26.60;99.90
5059;DHT22;2548;52.050;11.036;2022-08-25T09:43:22;26.70;99.90
5059;DHT22;2548;52.050;11.036;2022-08-25T09:45:58;26.70;99.90
5059;DHT22;2548;52.050;11.036;2022-08-25T09:48:29;26.70;99.90
5059;DHT22;2548;52.050;11.036;2022-08-25T09:51:16;26.90;99.90
5059;DHT22;2548;52.050;11.036;2022-08-25T09:53:49;27.30;99.90
5059;DHT22;2548;52.050;11.036;2022-08-25T09:56:21;27.40;99.90
5059;DHT22;2548;52.050;11.036;2022-08-25T09:58:50;27.30;99.90
5059;DHT22;2548;52.050;11.036;2022-08-25T10:01:19;27.40;99.90
5059;DHT22;2548;52.050;11.036;2022-08-25T10:03:59;27.30;99.90
5059;DHT22;2548;52.050;11.036;2022-08-25T10:06:29;27.50;99.90
5059;DHT22;2548;52.050;11.036;2022-08-25T10:09:02;27.80;99.90
5059;DHT22;2548;52.050;11.036;2022-08-25T10:11:39;27.90;99.90
5059;DHT22;2548;52.050;11.036;2022-08-25T10:14:26;28.00;99.90
5059;DHT22;2548;52.050;11.036;2022-08-25T10:17:13;28.10;99.90
5059;DHT22;2548;52.050;11.036;2022-08-25T10:19:42;28.40;99.90
5059;DHT22;2548;52.050;11.036;2022-08-25T10:22:11;28.50;99.90
5059;DHT22;2548;52.050;11.036;2022-08-25T10:24:48;28.70;99.90
5059;DHT22;2548;52.050;11.036;2022-08-25T10:27:22;28.80;99.90
5059;DHT22;2548;52.050;11.036;2022-08-25T10:30:14;28.90;99.90
5059;DHT22;2548;52.050;11.036;2022-08-25T10:32:58;29.00;99.90
5059;DHT22;2548;52.050;11.036;2022-08-25T10:35:33;29.10;99.90
5059;DHT22;2548;52.050;11.036;2022-08-25T10:38:15;29.20;99.90
5059;DHT22;2548;52.050;11.036;2022-08-25T10:40:54;29.30;99.90
5059;DHT22;2548;52.050;11.036;2022-08-25T10:43:30;29.50;99.90
5059;DHT22;2548;52.050;11.036;2022-08-25T10:46:09;29.50;99.90
5059;DHT22;2548;52.050;11.036;2022-08-25T10:48:56;29.60;99.90
5059;DHT22;2548;52.050;11.036;2022-08-25T10:51:43;29.30;99.90
5059;DHT22;2548;52.050;11.036;2022-08-25T10:54:22;28.90;99.90
5059;DHT22;2548;52.050;11.036;2022-08-25T10:56:58;29.00;99.90
5059;DHT22;2548;52.050;11.036;2022-08-25T10:59:49;29.00;99.90
5059;DHT22;2548;52.050;11.036;2022-08-25T11:02:59;28.90;99.90
5059;DHT22;2548;52.050;11.036;2022-08-25T11:05:30;29.10;99.90
5059;DHT22;2548;52.050;11.036;2022-08-25T11:08:07;29.20;99.90
5059;DHT22;2548;52.050;11.036;2022-08-25T11:10:40;29.40;99.90
5059;DHT22;2548;52.050;11.036;2022-08-25T11:13:14;29.40;99.90
5059;DHT22;2548;52.050;11.036;2022-08-25T11:15:51;29.30;99.90
5059;DHT22;2548;52.050;11.036;2022-08-25T11:18:20;29.30;99.90
5059;DHT22;2548;52.050;11.036;2022-08-25T11:20:55;28.90;99.90
5059;DHT22;2548;52.050;11.036;2022-08-25T11:23:27;29.00;99.90
5059;DHT22;2548;52.050;11.036;2022-08-25T11:25:59;29.20;99.90
5059;DHT22;2548;52.050;11.036;2022-08-25T11:28:31;29.40;99.90
5059;DHT22;2548;52.050;11.036;2022-08-25T11:31:02;29.50;99.90
5059;DHT22;2548;52.050;11.036;2022-08-25T11:33:30;29.60;99.90
5059;DHT22;2548;52.050;11.036;2022-08-25T11:36:03;29.50;99.90
5059;DHT22;2548;52.050;11.036;2022-08-25T11:38:41;29.50;99.90
5059;DHT22;2548;52.050;11.036;2022-08-25T11:41:20;29.70;99.90
5059;DHT22;2548;52.050;11.036;2022-08-25T11:44:02;29.70;99.90
5059;DHT22;2548;52.050;11.036;2022-08-25T11:46:46;29.80;99.90
5059;DHT22;2548;52.050;11.036;2022-08-25T11:49:47;30.00;99.90
5059;DHT22;2548;52.050;11.036;2022-08-25T11:52:45;30.10;99.90
5059;DHT22;2548;52.050;11.036;2022-08-25T11:55:16;29.90;99.90
5059;DHT22;2548;52.050;11.036;2022-08-25T11:57:46;29.80;99.90
5059;DHT22;2548;52.050;11.036;2022-08-25T12:00:35;30.00;99.90
5059;DHT22;2548;52.050;11.036;2022-08-25T12:06:21;30.70;99.90
5059;DHT22;2548;52.050;11.036;2022-08-25T12:08:53;30.80;99.90
5059;DHT22;2548;52.050;11.036;2022-08-25T12:11:51;30.50;99.90
5059;DHT22;2548;52.050;11.036;2022-08-25T12:14:45;30.10;99.90
5059;DHT22;2548;52.050;11.036;2022-08-25T12:17:22;30.20;99.90
5059;DHT22;2548;52.050;11.036;2022-08-25T12:19:54;30.30;99.90
5059;DHT22;2548;52.050;11.036;2022-08-25T12:22:44;30.20;99.90
5059;DHT22;2548;52.050;11.036;2022-08-25T12:25:37;30.30;99.90
5059;DHT22;2548;52.050;11.036;2022-08-25T12:28:23;30.30;99.90
5059;DHT22;2548;52.050;11.036;2022-08-25T12:30:57;30.60;99.90
5059;DHT22;2548;52.050;11.036;2022-08-25T12:33:34;30.70;99.90
5059;DHT22;2548;52.050;11.036;2022-08-25T12:36:06;30.90;99.90
5059;DHT22;2548;52.050;11.036;2022-08-25T12:38:41;31.20;99.90
5059;DHT22;2548;52.050;11.036;2022-08-25T12:41:11;31.40;99.90
5059;DHT22;2548;52.050;11.036;2022-08-25T12:43:41;31.40;99.90
5059;DHT22;2548;52.050;11.036;2022-08-25T12:46:32;31.40;99.90
5059;DHT22;2548;52.050;11.036;2022-08-25T12:49:02;31.50;99.90
5059;DHT22;2548;52.050;11.036;2022-08-25T12:51:51;31.50;99.90
5059;DHT22;2548;52.050;11.036;2022-08-25T12:54:27;31.60;99.90
5059;DHT22;2548;52.050;11.036;2022-08-25T12:57:00;31.70;99.90
5059;DHT22;2548;52.050;11.036;2022-08-25T12:59:36;31.90;99.90
5059;DHT22;2548;52.050;11.036;2022-08-25T13:02:45;31.80;99.90
5059;DHT22;2548;52.050;11.036;2022-08-25T13:05:39;31.50;99.90
5059;DHT22;2548;52.050;11.036;2022-08-25T13:08:38;31.00;99.90
5059;DHT22;2548;52.050;11.036;2022-08-25T13:11:16;30.60;99.90
5059;DHT22;2548;52.050;11.036;2022-08-25T13:13:48;30.30;99.90
5059;DHT22;2548;52.050;11.036;2022-08-25T13:16:20;30.30;99.90
5059;DHT22;2548;52.050;11.036;2022-08-25T13:18:49;30.50;99.90
5059;DHT22;2548;52.050;11.036;2022-08-25T13:21:18;30.40;99.90
5059;DHT22;2548;52.050;11.036;2022-08-25T13:23:49;30.40;99.90
5059;DHT22;2548;52.050;11.036;2022-08-25T13:26:22;30.20;99.90
5059;DHT22;2548;52.050;11.036;2022-08-25T13:28:54;30.00;99.90
5059;DHT22;2548;52.050;11.036;2022-08-25T13:31:23;29.90;99.90
5059;DHT22;2548;52.050;11.036;2022-08-25T13:33:55;29.80;99.90
5059;DHT22;2548;52.050;11.036;2022-08-25T13:36:24;29.70;99.90
5059;DHT22;2548;52.050;11.036;2022-08-25T13:39:11;29.50;99.90
5059;DHT22;2548;52.050;11.036;2022-08-25T13:41:45;29.50;99.90
5059;DHT22;2548;52.050;11.036;2022-08-25T13:44:14;29.40;99.90
5059;DHT22;2548;52.050;11.036;2022-08-25T13:46:43;29.40;99.90
5059;DHT22;2548;52.050;11.036;2022-08-25T13:49:23;29.60;99.90
5059;DHT22;2548;52.050;11.036;2022-08-25T13:51:53;29.90;99.90
5059;DHT22;2548;52.050;11.036;2022-08-25T13:54:25;30.00;99.90
5059;DHT22;2548;52.050;11.036;2022-08-25T13:57:04;30.00;99.90
5059;DHT22;2548;52.050;11.036;2022-08-25T13:59:36;29.90;99.90
5059;DHT22;2548;52.050;11.036;2022-08-25T14:02:06;29.90;99.90
5059;DHT22;2548;52.050;11.036;2022-08-25T14:04:45;30.20;99.90
5059;DHT22;2548;52.050;11.036;2022-08-25T14:07:27;30.50;99.90
5059;DHT22;2548;52.050;11.036;2022-08-25T14:09:56;30.60;99.90
5059;DHT22;2548;52.050;11.036;2022-08-25T14:12:29;30.60;99.90
5059;DHT22;2548;52.050;11.036;2022-08-25T14:14:59;30.70;99.90
5059;DHT22;2548;52.050;11.036;2022-08-25T14:17:27;30.80;99.90
5059;DHT22;2548;52.050;11.036;2022-08-25T14:19:56;31.00;99.90
5059;DHT22;2548;52.050;11.036;2022-08-25T14:22:24;31.10;99.90
5059;DHT22;2548;52.050;11.036;2022-08-25T14:24:53;31.10;99.70
5059;DHT22;2548;52.050;11.036;2022-08-25T14:27:20;31.30;99.80
5059;DHT22;2548;52.050;11.036;2022-08-25T14:29:50;31.40;99.60
5059;DHT22;2548;52.050;11.036;2022-08-25T14:32:17;31.40;99.20
5059;DHT22;2548;52.050;11.036;2022-08-25T14:34:45;31.40;99.10
5059;DHT22;2548;52.050;11.036;2022-08-25T14:37:15;31.50;98.90
5059;DHT22;2548;52.050;11.036;2022-08-25T14:39:43;31.60;99.00
5059;DHT22;2548;52.050;11.036;2022-08-25T14:42:12;31.70;99.00
5059;DHT22;2548;52.050;11.036;2022-08-25T14:44:40;31.70;99.00
5059;DHT22;2548;52.050;11.036;2022-08-25T14:47:09;31.80;99.30
5059;DHT22;2548;52.050;11.036;2022-08-25T14:49:40;31.80;99.30
5059;DHT22;2548;52.050;11.036;2022-08-25T14:52:17;31.80;98.90
5059;DHT22;2548;52.050;11.036;2022-08-25T14:54:45;31.80;98.40
5059;DHT22;2548;52.050;11.036;2022-08-25T14:57:13;31.80;98.60
5059;DHT22;2548;52.050;11.036;2022-08-25T14:59:40;31.90;98.70
5059;DHT22;2548;52.050;11.036;2022-08-25T15:02:10;31.90;98.10
5059;DHT22;2548;52.050;11.036;2022-08-25T15:04:39;31.90;98.50
5059;DHT22;2548;52.050;11.036;2022-08-25T15:07:07;31.90;98.40
5059;DHT22;2548;52.050;11.036;2022-08-25T15:09:48;31.90;98.20
5059;DHT22;2548;52.050;11.036;2022-08-25T15:12:16;31.80;98.40
5059;DHT22;2548;52.050;11.036;2022-08-25T15:14:44;31.80;98.60
5059;DHT22;2548;52.050;11.036;2022-08-25T15:17:13;31.80;98.10
5059;DHT22;2548;52.050;11.036;2022-08-25T15:19:41;31.60;98.10
5059;DHT22;2548;52.050;11.036;2022-08-25T15:22:09;31.30;98.20
5059;DHT22;2548;52.050;11.036;2022-08-25T15:24:37;31.10;98.60
5059;DHT22;2548;52.050;11.036;2022-08-25T15:27:05;31.00;98.90
5059;DHT22;2548;52.050;11.036;2022-08-25T15:29:35;30.80;98.70
5059;DHT22;2548;52.050;11.036;2022-08-25T15:32:05;30.70;98.90
5059;DHT22;2548;52.050;11.036;2022-08-25T15:34:35;30.70;99.40
5059;DHT22;2548;52.050;11.036;2022-08-25T15:37:07;30.80;99.30
5059;DHT22;2548;52.050;11.036;2022-08-25T15:39:36;31.00;99.40
5059;DHT22;2548;52.050;11.036;2022-08-25T15:42:04;31.00;99.10
5059;DHT22;2548;52.050;11.036;2022-08-25T15:44:33;31.00;99.00
5059;DHT22;2548;52.050;11.036;2022-08-25T15:47:00;31.00;99.10
5059;DHT22;2548;52.050;11.036;2022-08-25T15:49:28;31.00;98.90
5059;DHT22;2548;52.050;11.036;2022-08-25T15:51:57;31.10;99.20
5059;DHT22;2548;52.050;11.036;2022-08-25T15:54:25;31.10;99.30
5059;DHT22;2548;52.050;11.036;2022-08-25T15:56:54;31.10;99.10
5059;DHT22;2548;52.050;11.036;2022-08-25T15:59:22;31.10;99.10
5059;DHT22;2548;52.050;11.036;2022-08-25T16:01:49;31.00;99.00
5059;DHT22;2548;52.050;11.036;2022-08-25T16:04:19;31.00;99.10
5059;DHT22;2548;52.050;11.036;2022-08-25T16:06:47;31.00;99.30
5059;DHT22;2548;52.050;11.036;2022-08-25T16:09:16;31.00;99.40
5059;DHT22;2548;52.050;11.036;2022-08-25T16:11:44;30.90;99.50
5059;DHT22;2548;52.050;11.036;2022-08-25T16:14:11;30.80;99.50
5059;DHT22;2548;52.050;11.036;2022-08-25T16:16:40;30.80;99.00